createdAt,value
2019-01-26T00:01:15.818Z,78.90
2019-01-26T00:03:46.740Z,77.50
2019-01-26T00:06:29.248Z,76.70
2019-01-26T00:08:58.707Z,76.40
2019-01-26T00:11:28.167Z,76.20
2019-01-26T00:13:57.859Z,75.50
2019-01-26T00:16:27.501Z,76.70
2019-01-26T00:18:56.920Z,76.70
2019-01-26T00:21:26.497Z,77.90
2019-01-26T00:23:56.021Z,78.60
2019-01-26T00:26:25.699Z,78.40
2019-01-26T00:28:55.116Z,77.50
2019-01-26T00:31:24.707Z,77.40
2019-01-26T00:33:54.275Z,76.80
2019-01-26T00:36:23.831Z,77.80
2019-01-26T00:38:54.015Z,75.90
2019-01-26T00:41:23.655Z,76.30
2019-01-26T00:43:53.155Z,75.90
2019-01-26T00:46:28.356Z,75.90
2019-01-26T00:48:54.016Z,76.60
2019-01-26T00:51:23.439Z,76.00
2019-01-26T00:53:52.888Z,76.40
2019-01-26T00:56:22.436Z,76.90
2019-01-26T00:58:51.874Z,77.10
2019-01-26T01:01:21.564Z,77.50
2019-01-26T01:03:51.048Z,78.10
2019-01-26T01:06:25.890Z,78.00
2019-01-26T01:08:53.601Z,78.60
2019-01-26T01:11:42.448Z,78.70
2019-01-26T01:14:12.128Z,77.40
2019-01-26T01:16:41.814Z,79.30
2019-01-26T01:19:12.115Z,79.40
2019-01-26T01:21:43.172Z,80.10
2019-01-26T01:24:12.804Z,79.30
2019-01-26T01:26:42.939Z,79.50
2019-01-26T01:29:12.519Z,78.90
2019-01-26T01:31:41.943Z,78.40
2019-01-26T01:34:11.770Z,79.70
2019-01-26T01:36:41.192Z,80.20
2019-01-26T01:39:10.890Z,80.10
2019-01-26T01:41:40.851Z,80.90
2019-01-26T01:44:10.275Z,79.80
2019-01-26T01:46:43.027Z,82.70
2019-01-26T01:49:10.831Z,82.70
2019-01-26T01:51:40.396Z,81.00
2019-01-26T01:54:10.215Z,79.20
2019-01-26T01:56:39.884Z,81.20
2019-01-26T01:59:09.302Z,79.60
2019-01-26T02:01:38.795Z,79.00
2019-01-26T02:04:08.643Z,78.20
2019-01-26T02:06:38.058Z,78.90
2019-01-26T02:09:09.051Z,77.80
2019-01-26T02:11:38.678Z,79.50
2019-01-26T02:14:08.482Z,80.20
2019-01-26T02:16:37.975Z,80.00
2019-01-26T02:19:08.205Z,78.90
2019-01-26T02:21:37.951Z,79.00
2019-01-26T02:24:07.643Z,80.50
2019-01-26T02:26:37.684Z,80.00
2019-01-26T02:29:07.240Z,79.60
2019-01-26T02:31:36.720Z,80.00
2019-01-26T02:34:06.607Z,79.60
2019-01-26T02:36:36.038Z,80.40
2019-01-26T02:39:07.781Z,81.80
2019-01-26T02:41:37.296Z,81.20
2019-01-26T02:44:06.778Z,81.20
2019-01-26T02:46:36.319Z,81.90
2019-01-26T02:49:06.159Z,82.00
2019-01-26T02:51:36.216Z,81.00
2019-01-26T02:54:06.137Z,81.00
2019-01-26T02:56:35.653Z,80.60
2019-01-26T02:59:05.556Z,80.30
2019-01-26T03:01:35.470Z,81.00
2019-01-26T03:04:05.657Z,81.70
2019-01-26T03:06:35.235Z,82.60
2019-01-26T03:09:07.879Z,83.00
2019-01-26T03:11:38.771Z,82.10
2019-01-26T03:14:08.735Z,81.40
2019-01-26T03:16:38.224Z,81.40
2019-01-26T03:19:07.816Z,82.80
2019-01-26T03:21:37.298Z,81.40
2019-01-26T03:24:06.960Z,82.40
2019-01-26T03:26:36.738Z,81.70
2019-01-26T03:29:06.314Z,82.90
2019-01-26T03:31:35.782Z,82.20
2019-01-26T03:34:05.355Z,82.20
2019-01-26T03:36:35.103Z,81.50
2019-01-26T03:39:07.238Z,82.70
2019-01-26T03:41:37.009Z,82.20
2019-01-26T03:44:06.999Z,82.30
2019-01-26T03:46:36.421Z,82.50
2019-01-26T03:49:06.629Z,82.50
2019-01-26T03:51:36.264Z,84.30
2019-01-26T03:54:05.829Z,84.60
2019-01-26T03:56:35.276Z,83.60
2019-01-26T03:59:05.111Z,82.80
2019-01-26T04:01:34.670Z,84.20
2019-01-26T04:04:04.359Z,84.50
2019-01-26T04:06:34.238Z,83.60
2019-01-26T04:09:05.624Z,84.00
2019-01-26T04:11:54.599Z,85.60
2019-01-26T04:14:25.228Z,83.80
2019-01-26T04:16:54.963Z,83.50
2019-01-26T04:19:24.759Z,83.70
2019-01-26T04:21:54.824Z,85.90
2019-01-26T04:24:24.435Z,87.90
2019-01-26T04:26:54.168Z,85.90
2019-01-26T04:29:23.588Z,84.60
2019-01-26T04:31:53.007Z,85.40
2019-01-26T04:34:22.838Z,86.80
2019-01-26T04:36:52.260Z,86.80
2019-01-26T04:39:21.679Z,86.20
2019-01-26T04:41:51.345Z,87.10
2019-01-26T04:44:20.844Z,86.40
2019-01-26T04:46:50.644Z,85.10
2019-01-26T04:49:20.212Z,85.80
2019-01-26T04:51:49.651Z,88.40
2019-01-26T04:54:19.335Z,88.30
2019-01-26T04:56:49.014Z,85.40
2019-01-26T04:59:18.441Z,90.30
2019-01-26T05:01:47.922Z,89.30
2019-01-26T05:04:17.375Z,88.60
2019-01-26T05:06:47.111Z,87.20
2019-01-26T05:09:17.134Z,88.50
2019-01-26T05:11:48.760Z,87.30
2019-01-26T05:14:18.182Z,88.80
2019-01-26T05:16:48.948Z,90.00
2019-01-26T05:19:18.899Z,87.90
2019-01-26T05:21:48.319Z,90.00
2019-01-26T05:24:19.114Z,90.00
2019-01-26T05:26:48.895Z,88.10
2019-01-26T05:29:18.703Z,87.50
2019-01-26T05:31:48.142Z,87.00
2019-01-26T05:34:17.920Z,89.30
2019-01-26T05:36:47.454Z,89.40
2019-01-26T05:39:16.881Z,90.40
2019-01-26T05:41:46.515Z,91.60
2019-01-26T05:44:16.030Z,90.00
2019-01-26T05:46:45.448Z,91.10
2019-01-26T05:49:14.903Z,90.30
2019-01-26T05:51:44.402Z,93.00
2019-01-26T05:54:14.369Z,92.60
2019-01-26T05:56:44.392Z,92.00
2019-01-26T05:59:13.829Z,91.30
2019-01-26T06:01:43.363Z,91.70
2019-01-26T06:04:13.074Z,92.40
2019-01-26T06:06:42.496Z,92.90
2019-01-26T06:09:12.231Z,92.60
2019-01-26T06:11:41.747Z,92.20
2019-01-26T06:14:11.168Z,91.60
2019-01-26T06:16:41.626Z,92.40
2019-01-26T06:19:12.610Z,92.00
2019-01-26T06:21:42.035Z,91.10
2019-01-26T06:24:11.451Z,91.60
2019-01-26T06:26:41.642Z,92.80
2019-01-26T06:29:11.135Z,92.90
2019-01-26T06:31:40.739Z,92.10
2019-01-26T06:34:10.319Z,93.10
2019-01-26T06:36:39.892Z,93.50
2019-01-26T06:39:10.307Z,93.20
2019-01-26T06:41:40.099Z,92.40
